createdAt,value
2022-09-12T00:02:27.776Z,99874.02
2022-09-12T00:04:59.253Z,99874.08
2022-09-12T00:07:32.220Z,99873.62
2022-09-12T00:10:03.210Z,99876.58
2022-09-12T00:12:34.449Z,99877.98
2022-09-12T00:15:06.385Z,99874.75
2022-09-12T00:17:40.186Z,99874.31
2022-09-12T00:20:12.810Z,99873.86
2022-09-12T00:22:43.765Z,99874.41
2022-09-12T00:25:14.606Z,99871.72
2022-09-12T00:27:45.552Z,99871.58
2022-09-12T00:30:16.530Z,99873.30
2022-09-12T00:32:47.365Z,99873.52
2022-09-12T00:35:18.202Z,99870.12
2022-09-12T00:37:49.014Z,99867.91
2022-09-12T00:40:19.985Z,99869.46
2022-09-12T00:42:50.812Z,99862.97
2022-09-12T00:45:28.431Z,99863.85
2022-09-12T00:48:03.340Z,99865.56
2022-09-12T00:50:35.223Z,99864.35
2022-09-12T00:53:09.286Z,99868.98
2022-09-12T00:55:43.823Z,99873.94
2022-09-12T00:58:20.327Z,99876.84
2022-09-12T01:00:51.369Z,99876.34
2022-09-12T01:03:24.939Z,99880.48
2022-09-12T01:06:02.599Z,99878.83
2022-09-12T01:08:34.305Z,99885.20
2022-09-12T01:11:05.462Z,99885.43
2022-09-12T01:13:37.566Z,99887.52
2022-09-12T01:16:09.778Z,99891.65
2022-09-12T01:18:53.873Z,99890.00
2022-09-12T01:21:35.448Z,99889.35
2022-09-12T01:24:44.238Z,99895.88
2022-09-12T01:27:33.526Z,99893.86
2022-09-12T01:30:27.642Z,99895.56
2022-09-12T01:33:27.335Z,99894.19
2022-09-12T01:36:10.842Z,99892.61
2022-09-12T01:38:47.211Z,99894.80
2022-09-12T01:41:26.637Z,99894.46
2022-09-12T01:44:06.957Z,99894.98
2022-09-12T01:46:48.367Z,99895.48
2022-09-12T01:49:24.293Z,99900.77
2022-09-12T01:52:01.377Z,99899.57
2022-09-12T01:54:40.031Z,99903.30
2022-09-12T01:57:15.363Z,99905.34
2022-09-12T01:59:49.505Z,99905.49
2022-09-12T02:02:26.606Z,99905.36
2022-09-12T02:05:04.238Z,99906.40
2022-09-12T02:07:40.813Z,99902.84
2022-09-12T02:10:16.051Z,99900.60
2022-09-12T02:12:51.169Z,99900.27
2022-09-12T02:15:21.962Z,99901.80
2022-09-12T02:17:56.620Z,99900.10
2022-09-12T02:20:47.376Z,99900.82
2022-09-12T02:23:25.955Z,99903.42
2022-09-12T02:26:01.719Z,99903.09
2022-09-12T02:28:36.491Z,99903.48
2022-09-12T02:31:25.150Z,99901.95
2022-09-12T02:34:10.517Z,99903.14
2022-09-12T02:36:50.154Z,99908.48
2022-09-12T02:39:21.435Z,99909.21
2022-09-12T02:41:55.821Z,99908.39
2022-09-12T02:44:28.372Z,99911.30
2022-09-12T02:47:03.952Z,99916.28
2022-09-12T02:49:35.082Z,99916.77
2022-09-12T02:52:06.852Z,99918.27
2022-09-12T02:54:39.088Z,99925.09
2022-09-12T02:57:22.653Z,99925.93
2022-09-12T02:59:57.793Z,99926.27
2022-09-12T03:02:41.834Z,99925.59
2022-09-12T03:05:22.544Z,99927.66
2022-09-12T03:08:16.303Z,99924.27
2022-09-12T03:11:02.549Z,99930.11
2022-09-12T03:13:40.325Z,99927.59
2022-09-12T03:16:18.311Z,99932.45
2022-09-12T03:18:59.261Z,99936.05
2022-09-12T03:21:38.392Z,99938.63
2022-09-12T03:24:19.281Z,99939.46
2022-09-12T03:26:54.559Z,99939.27
2022-09-12T03:29:27.912Z,99943.55
2022-09-12T03:32:00.071Z,99945.24
2022-09-12T03:34:31.090Z,99945.29
2022-09-12T03:37:02.323Z,99953.00
2022-09-12T03:39:33.795Z,99956.60
2022-09-12T03:42:05.212Z,99956.10
2022-09-12T03:44:36.076Z,99961.42
2022-09-12T03:47:11.092Z,99964.66
2022-09-12T03:49:42.336Z,99968.26
2022-09-12T03:52:13.452Z,99969.13
2022-09-12T03:54:44.245Z,99970.67
2022-09-12T03:57:15.690Z,99966.44
2022-09-12T03:59:46.562Z,99969.52
2022-09-12T04:02:17.567Z,99966.11
2022-09-12T04:04:49.223Z,99969.02
2022-09-12T04:07:20.162Z,99966.12
2022-09-12T04:09:51.022Z,99970.63
2022-09-12T04:12:22.066Z,99967.39
2022-09-12T04:14:52.923Z,99974.42
2022-09-12T04:17:24.702Z,99975.27
2022-09-12T04:19:55.570Z,99978.16
2022-09-12T04:22:26.535Z,99978.15
2022-09-12T04:24:58.217Z,99980.86
2022-09-12T04:27:29.726Z,99980.01
2022-09-12T04:30:02.272Z,99984.48
2022-09-12T04:32:33.777Z,99987.59
2022-09-12T04:35:05.050Z,99987.08
2022-09-12T04:37:39.129Z,99985.33
2022-09-12T04:40:12.025Z,99986.52
2022-09-12T04:43:03.103Z,99987.20
2022-09-12T04:45:34.133Z,99993.86
2022-09-12T04:48:21.074Z,99995.41
2022-09-12T04:51:05.548Z,99997.63
2022-09-12T04:53:37.189Z,100000.18
2022-09-12T04:56:11.073Z,100006.33
2022-09-12T04:58:42.239Z,100002.77
2022-09-12T05:01:24.657Z,100007.90
2022-09-12T05:04:09.952Z,100007.44
2022-09-12T05:06:47.613Z,100008.13
2022-09-12T05:09:18.799Z,100005.62
2022-09-12T05:12:07.441Z,100008.05
2022-09-12T05:14:41.398Z,100014.05
2022-09-12T05:17:19.371Z,100019.36
2022-09-12T05:19:58.458Z,100018.81
2022-09-12T05:22:29.650Z,100018.80
2022-09-12T05:25:04.090Z,100019.29
2022-09-12T05:27:36.321Z,100015.57
2022-09-12T05:30:09.023Z,100016.96
2022-09-12T05:32:41.265Z,100018.83
2022-09-12T05:35:12.438Z,100022.79
2022-09-12T05:37:44.202Z,100021.08
2022-09-12T05:40:19.516Z,100022.11
2022-09-12T05:42:50.685Z,100025.37
2022-09-12T05:45:21.858Z,100026.23
2022-09-12T05:47:54.247Z,100032.52
2022-09-12T05:50:26.263Z,100034.89
2022-09-12T05:52:57.927Z,100031.79
2022-09-12T05:55:29.432Z,100031.24
2022-09-12T05:58:00.337Z,100033.10
2022-09-12T06:00:33.554Z,100032.58
2022-09-12T06:03:05.709Z,100026.39
2022-09-12T06:05:37.303Z,100033.21
2022-09-12T06:08:08.875Z,100028.88
2022-09-12T06:10:39.810Z,100030.72
2022-09-12T06:13:11.547Z,100028.98
2022-09-12T06:15:42.678Z,100028.96
2022-09-12T06:18:13.717Z,100030.30
2022-09-12T06:20:44.839Z,100026.02
2022-09-12T06:23:15.685Z,100026.85
2022-09-12T06:25:52.476Z,100029.73
2022-09-12T06:29:16.379Z,100030.70
2022-09-12T06:31:47.618Z,100027.91
2022-09-12T06:34:19.687Z,100027.51
2022-09-12T06:36:53.023Z,100031.90
2022-09-12T06:40:12.523Z,100032.17
2022-09-12T06:42:43.936Z,100043.38
2022-09-12T06:45:16.610Z,100042.30
2022-09-12T06:47:47.809Z,100042.79
2022-09-12T06:50:19.416Z,100045.84
2022-09-12T06:52:51.894Z,100042.52
2022-09-12T06:55:27.740Z,100042.09
2022-09-12T06:57:58.955Z,100044.57
2022-09-12T07:00:29.895Z,100044.00
2022-09-12T07:03:02.209Z,100046.73
2022-09-12T07:05:35.128Z,100047.77
2022-09-12T07:08:06.209Z,100046.19
2022-09-12T07:10:37.035Z,100047.19
2022-09-12T07:13:08.086Z,100051.39
2022-09-12T07:15:39.563Z,100053.37
2022-09-12T07:18:18.594Z,100061.05
2022-09-12T07:20:49.603Z,100063.46
2022-09-12T07:23:20.571Z,100065.02
2022-09-12T07:25:57.584Z,100068.78
2022-09-12T07:28:31.019Z,100071.85
2022-09-12T07:31:08.801Z,100073.66
2022-09-12T07:33:40.909Z,100078.36
2022-09-12T07:36:18.933Z,100081.21
2022-09-12T07:38:57.206Z,100083.58
2022-09-12T07:41:30.426Z,100086.27
2022-09-12T07:44:03.715Z,100090.17
2022-09-12T07:46:37.507Z,100095.24
2022-09-12T07:49:08.850Z,100092.60
2022-09-12T07:51:39.747Z,100094.80
2022-09-12T07:54:12.313Z,100095.92
2022-09-12T07:56:43.310Z,100100.83
2022-09-12T07:59:25.370Z,100102.43
2022-09-12T08:02:06.166Z,100106.67
2022-09-12T08:04:37.176Z,100106.62
2022-09-12T08:07:08.147Z,100107.95
2022-09-12T08:09:39.415Z,100112.03
2022-09-12T08:12:11.689Z,100112.66
2022-09-12T08:14:42.650Z,100112.63
2022-09-12T08:17:15.466Z,100114.46
2022-09-12T08:19:48.343Z,100116.23
2022-09-12T08:22:22.533Z,100112.18
2022-09-12T08:24:53.886Z,100112.39
2022-09-12T08:27:24.964Z,100112.11
2022-09-12T08:30:03.271Z,100110.99
2022-09-12T08:32:35.912Z,100114.52
2022-09-12T08:35:08.169Z,100111.21
2022-09-12T08:37:39.212Z,100112.40
2022-09-12T08:40:26.660Z,100113.00
2022-09-12T08:43:11.559Z,100111.36
2022-09-12T08:45:52.521Z,100109.58
2022-09-12T08:48:24.368Z,100107.40
2022-09-12T08:50:55.483Z,100111.09
2022-09-12T08:53:29.326Z,100110.67
2022-09-12T08:56:04.085Z,100112.47
2022-09-12T08:58:40.847Z,100111.52
2022-09-12T09:01:16.884Z,100114.69
2022-09-12T09:04:11.228Z,100116.65
2022-09-12T09:06:57.322Z,100115.74
2022-09-12T09:09:39.837Z,100115.13
2022-09-12T09:12:21.432Z,100115.89
2022-09-12T09:15:15.143Z,100118.57
2022-09-12T09:17:51.357Z,100112.00
2022-09-12T09:20:31.641Z,100116.99
2022-09-12T09:23:10.318Z,100120.50
2022-09-12T09:25:51.327Z,100118.92
2022-09-12T09:28:31.297Z,100120.77
2022-09-12T09:31:02.708Z,100126.73
2022-09-12T09:33:36.848Z,100126.85
2022-09-12T09:36:19.325Z,100124.55
2022-09-12T09:39:00.959Z,100124.44
2022-09-12T09:41:51.448Z,100128.10
2022-09-12T09:44:22.600Z,100129.88
2022-09-12T09:46:59.260Z,100132.36
2022-09-12T09:49:36.402Z,100130.03
2022-09-12T09:52:09.586Z,100132.88
2022-09-12T09:54:44.247Z,100135.66
2022-09-12T09:57:42.198Z,100135.39
2022-09-12T10:00:30.661Z,100139.45
2022-09-12T10:03:12.577Z,100139.27
2022-09-12T10:05:50.893Z,100139.16
2022-09-12T10:08:27.511Z,100142.50
2022-09-12T10:11:04.763Z,100146.17
2022-09-12T10:13:43.000Z,100151.91
2022-09-12T10:16:23.746Z,100156.05
2022-09-12T10:18:56.598Z,100159.45
2022-09-12T10:21:33.549Z,100161.73
2022-09-12T10:24:15.568Z,100161.41
2022-09-12T10:26:55.885Z,100167.09
2022-09-12T10:29:31.711Z,100167.75
2022-09-12T10:32:08.388Z,100165.38
2022-09-12T10:34:44.247Z,100165.44
2022-09-12T10:37:27.781Z,100169.92
2022-09-12T10:40:00.600Z,100172.55
2022-09-12T10:42:51.559Z,100173.00
2022-09-12T10:45:30.201Z,100174.06
2022-09-12T10:48:07.309Z,100174.94
2022-09-12T10:50:43.790Z,100172.00
2022-09-12T10:53:22.337Z,100173.20
2022-09-12T10:56:08.990Z,100174.69
2022-09-12T10:59:11.899Z,100182.03
2022-09-12T11:01:45.879Z,100181.32
2022-09-12T11:04:34.057Z,100184.68
2022-09-12T11:07:47.759Z,100183.94
2022-09-12T11:10:45.326Z,100186.13
2022-09-12T11:13:29.649Z,100187.30
2022-09-12T11:16:15.840Z,100188.08
2022-09-12T11:19:06.576Z,100188.77
2022-09-12T11:21:53.601Z,100191.08
2022-09-12T11:24:48.563Z,100187.25
2022-09-12T11:27:38.889Z,100186.59
2022-09-12T11:30:13.561Z,100189.28
2022-09-12T11:33:07.757Z,100185.38
2022-09-12T11:35:51.850Z,100186.36
2022-09-12T11:39:03.665Z,100188.10
2022-09-12T11:41:39.768Z,100182.52
2022-09-12T11:44:20.483Z,100187.05
2022-09-12T11:46:53.998Z,100189.36
2022-09-12T11:49:35.565Z,100190.70
2022-09-12T11:52:15.228Z,100191.16
2022-09-12T11:54:53.547Z,100194.51
2022-09-12T11:57:32.319Z,100194.41
2022-09-12T12:00:12.277Z,100197.56
2022-09-12T12:02:59.101Z,100194.85
2022-09-12T12:05:37.079Z,100196.15
2022-09-12T12:08:12.324Z,100197.48
2022-09-12T12:10:45.123Z,100193.89
2022-09-12T12:13:24.277Z,100192.73
2022-09-12T12:15:59.475Z,100194.16
2022-09-12T12:18:38.170Z,100193.31
2022-09-12T12:21:36.985Z,100197.13
2022-09-12T12:24:16.590Z,100195.90
2022-09-12T12:26:58.644Z,100195.15
2022-09-12T12:29:44.644Z,100203.11
2022-09-12T12:32:30.635Z,100198.89
2022-09-12T12:35:36.335Z,100199.83
2022-09-12T12:38:27.514Z,100204.88
2022-09-12T12:41:34.926Z,100206.20
2022-09-12T12:44:43.793Z,100206.38
2022-09-12T12:47:21.921Z,100206.91
2022-09-12T12:49:57.716Z,100207.30
2022-09-12T12:52:31.219Z,100211.44
2022-09-12T12:55:05.334Z,100212.10
2022-09-12T12:57:52.319Z,100212.48
2022-09-12T13:00:33.469Z,100213.39
2022-09-12T13:03:11.806Z,100211.69
2022-09-12T13:05:48.778Z,100211.67
2022-09-12T13:08:33.093Z,100214.38
2022-09-12T13:11:08.755Z,100215.16
2022-09-12T13:13:43.993Z,100215.92
2022-09-12T13:16:29.731Z,100216.17
2022-09-12T13:19:06.233Z,100216.41
2022-09-12T13:21:38.440Z,100212.95
2022-09-12T13:24:18.982Z,100215.50
2022-09-12T13:26:50.493Z,100214.79
2022-09-12T13:29:23.638Z,100215.59
2022-09-12T13:31:57.716Z,100217.94
2022-09-12T13:34:35.081Z,100220.56
2022-09-12T13:37:25.492Z,100219.20
2022-09-12T13:40:05.415Z,100218.96
2022-09-12T13:42:43.228Z,100216.83
2022-09-12T13:45:21.772Z,100216.65
2022-09-12T13:47:58.517Z,100214.24
2022-09-12T13:50:33.497Z,100212.71
2022-09-12T13:53:09.100Z,100213.77
2022-09-12T13:55:44.024Z,100212.90
2022-09-12T13:58:23.523Z,100212.23
2022-09-12T14:01:13.050Z,100209.68
2022-09-12T14:04:07.854Z,100211.05
2022-09-12T14:06:50.981Z,100209.91
2022-09-12T14:09:29.815Z,100207.95
2022-09-12T14:12:03.301Z,100208.58
2022-09-12T14:14:42.278Z,100205.59
2022-09-12T14:17:26.572Z,100204.31
2022-09-12T14:20:23.422Z,100205.21
2022-09-12T14:22:55.319Z,100206.72
2022-09-12T14:25:32.075Z,100207.73
2022-09-12T14:28:07.275Z,100205.54
2022-09-12T14:30:39.428Z,100204.13
2022-09-12T14:33:23.892Z,100205.52
2022-09-12T14:36:12.164Z,100202.81
2022-09-12T14:38:47.666Z,100201.65
2022-09-12T14:41:27.438Z,100200.66
2022-09-12T14:44:04.272Z,100199.73
2022-09-12T14:46:37.741Z,100199.25
2022-09-12T14:49:15.850Z,100200.36
2022-09-12T14:51:56.994Z,100203.55
2022-09-12T14:54:45.038Z,100202.46
2022-09-12T14:57:40.202Z,100201.91
2022-09-12T15:00:32.176Z,100201.89
2022-09-12T15:03:25.891Z,100203.14
2022-09-12T15:06:25.684Z,100203.42
2022-09-12T15:09:00.703Z,100206.21
2022-09-12T15:11:34.944Z,100209.00
2022-09-12T15:14:16.536Z,100209.39
2022-09-12T15:16:48.092Z,100206.34
2022-09-12T15:19:19.090Z,100211.27
2022-09-12T15:21:50.587Z,100216.00
2022-09-12T15:24:44.969Z,100217.27
2022-09-12T15:27:17.388Z,100216.66
2022-09-12T15:30:01.022Z,100218.30
2022-09-12T15:32:33.355Z,100220.48
2022-09-12T15:35:18.615Z,100218.58
2022-09-12T15:37:52.638Z,100223.98
2022-09-12T15:41:05.250Z,100228.45
2022-09-12T15:43:36.578Z,100232.39
2022-09-12T15:46:11.751Z,100230.94
2022-09-12T15:48:41.893Z,100229.86
2022-09-12T15:51:15.961Z,100232.06
2022-09-12T15:53:52.693Z,100231.84
2022-09-12T15:56:24.994Z,100231.26
2022-09-12T15:59:00.215Z,100233.13
2022-09-12T16:01:43.328Z,100234.30
2022-09-12T16:04:24.863Z,100235.27
2022-09-12T16:06:58.199Z,100237.10
2022-09-12T16:09:29.853Z,100231.38
2022-09-12T16:12:04.939Z,100233.09
2022-09-12T16:14:36.202Z,100232.27
2022-09-12T16:17:07.902Z,100233.08
2022-09-12T16:19:39.563Z,100236.09
2022-09-12T16:22:10.975Z,100233.81
2022-09-12T16:24:54.322Z,100236.95
2022-09-12T16:27:28.253Z,100234.80
2022-09-12T16:30:02.516Z,100234.23
2022-09-12T16:32:41.212Z,100231.23
2022-09-12T16:35:13.726Z,100231.89
2022-09-12T16:37:44.787Z,100231.70
2022-09-12T16:40:19.471Z,100230.31
2022-09-12T16:42:50.833Z,100229.26
2022-09-12T16:45:21.971Z,100228.98
2022-09-12T16:47:52.926Z,100233.16
2022-09-12T16:50:24.012Z,100238.40
2022-09-12T16:52:54.946Z,100235.53
2022-09-12T16:55:33.838Z,100240.06
2022-09-12T16:58:08.122Z,100239.41
2022-09-12T17:00:41.804Z,100241.02
2022-09-12T17:03:22.982Z,100241.80
2022-09-12T17:06:07.993Z,100245.44
2022-09-12T17:08:41.285Z,100245.70
2022-09-12T17:11:22.058Z,100240.73
2022-09-12T17:14:11.384Z,100243.67
2022-09-12T17:16:51.739Z,100242.30
2022-09-12T17:19:41.543Z,100243.52
2022-09-12T17:22:20.437Z,100240.80
2022-09-12T17:25:05.514Z,100245.61
2022-09-12T17:27:42.265Z,100246.86
2022-09-12T17:30:27.297Z,100242.27
2022-09-12T17:33:26.586Z,100243.02
2022-09-12T17:36:28.293Z,100244.33
2022-09-12T17:38:59.794Z,100250.02
2022-09-12T17:41:37.972Z,100249.55
2022-09-12T17:47:29.511Z,100244.13
2022-09-12T17:50:29.993Z,100245.53
2022-09-12T17:53:02.219Z,100253.14
2022-09-12T17:55:35.448Z,100252.45
2022-09-12T17:58:13.958Z,100243.72
2022-09-12T18:01:30.770Z,100245.79
2022-09-12T18:04:04.355Z,100247.00
2022-09-12T18:06:36.333Z,100242.38
2022-09-12T18:09:10.237Z,100239.80
2022-09-12T18:11:43.482Z,100239.33
2022-09-12T18:14:26.297Z,100241.40
2022-09-12T18:17:00.210Z,100244.48
2022-09-12T18:19:32.018Z,100250.44
2022-09-12T18:22:03.486Z,100245.27
2022-09-12T18:24:39.787Z,100245.73
2022-09-12T18:27:10.867Z,100244.67
2022-09-12T18:29:58.870Z,100243.95
2022-09-12T18:32:38.372Z,100245.83
2022-09-12T18:35:12.101Z,100242.35
2022-09-12T18:37:46.742Z,100243.72
2022-09-12T18:40:18.584Z,100246.92
2022-09-12T18:43:01.467Z,100247.91
2022-09-12T18:45:32.927Z,100254.11
2022-09-12T18:48:10.353Z,100256.65
2022-09-12T18:50:41.647Z,100248.95
2022-09-12T18:53:14.900Z,100247.95
2022-09-12T18:55:48.280Z,100243.84
2022-09-12T18:58:19.881Z,100241.48
2022-09-12T19:01:16.691Z,100249.10
2022-09-12T19:03:48.123Z,100248.81
2022-09-12T19:06:27.759Z,100248.01
2022-09-12T19:09:03.877Z,100246.05
2022-09-12T19:11:57.295Z,100248.73
2022-09-12T19:14:49.896Z,100250.77
2022-09-12T19:17:25.170Z,100249.33
2022-09-12T19:19:56.849Z,100251.31
2022-09-12T19:22:28.260Z,100248.47
2022-09-12T19:25:20.693Z,100251.98
2022-09-12T19:28:00.170Z,100247.77
2022-09-12T19:30:31.404Z,100244.17
2022-09-12T19:33:06.830Z,100246.80
2022-09-12T19:35:48.357Z,100246.53
2022-09-12T19:38:22.856Z,100240.79
2022-09-12T19:41:05.362Z,100242.58
2022-09-12T19:43:37.227Z,100242.14
2022-09-12T19:46:19.958Z,100243.62
2022-09-12T19:48:57.810Z,100237.54
2022-09-12T19:51:29.185Z,100239.38
2022-09-12T19:54:01.943Z,100235.02
2022-09-12T19:56:35.940Z,100230.48
2022-09-12T19:59:16.310Z,100229.73
2022-09-12T20:02:29.121Z,100232.09
2022-09-12T20:05:00.709Z,100232.89
2022-09-12T20:07:32.247Z,100231.81
2022-09-12T20:10:03.963Z,100230.20
2022-09-12T20:12:35.729Z,100231.84
2022-09-12T20:15:12.360Z,100232.23
2022-09-12T20:18:28.017Z,100229.93
2022-09-12T20:20:59.760Z,100227.07
2022-09-12T20:23:44.265Z,100230.77
2022-09-12T20:26:27.309Z,100231.23
2022-09-12T20:29:14.523Z,100231.85
2022-09-12T20:31:55.252Z,100230.27
2022-09-12T20:34:28.757Z,100229.48
2022-09-12T20:37:01.482Z,100229.39
2022-09-12T20:40:14.059Z,100226.75
2022-09-12T20:42:56.616Z,100226.66
2022-09-12T20:45:29.430Z,100226.25
2022-09-12T20:48:04.883Z,100226.67
2022-09-12T20:50:36.490Z,100227.79
2022-09-12T20:53:07.810Z,100224.10
2022-09-12T20:55:42.006Z,100230.64
2022-09-12T20:58:13.863Z,100229.35
2022-09-12T21:00:45.069Z,100229.77
2022-09-12T21:03:17.015Z,100226.58
2022-09-12T21:05:49.010Z,100225.77
2022-09-12T21:08:20.278Z,100222.75
2022-09-12T21:10:53.855Z,100219.21
2022-09-12T21:13:24.824Z,100223.90
2022-09-12T21:16:03.341Z,100220.19
2022-09-12T21:18:38.481Z,100220.77
2022-09-12T21:21:10.872Z,100222.72
2022-09-12T21:23:42.630Z,100225.16
2022-09-12T21:26:13.662Z,100231.05
2022-09-12T21:28:47.741Z,100233.85
2022-09-12T21:31:18.845Z,100238.33
2022-09-12T21:33:49.956Z,100230.84
2022-09-12T21:36:20.988Z,100229.35
2022-09-12T21:38:51.997Z,100225.98
2022-09-12T21:41:22.963Z,100224.00
2022-09-12T21:43:53.981Z,100226.77
2022-09-12T21:46:32.692Z,100228.88
2022-09-12T21:49:03.981Z,100227.73
2022-09-12T21:51:55.268Z,100224.19
2022-09-12T21:54:26.216Z,100212.77
2022-09-12T21:56:57.447Z,100213.37
2022-09-12T21:59:28.403Z,100211.73
2022-09-12T22:01:59.814Z,100209.90
2022-09-12T22:04:33.161Z,100211.84
2022-09-12T22:07:05.488Z,100210.19
2022-09-12T22:09:37.673Z,100211.44
2022-09-12T22:12:09.765Z,100212.86
2022-09-12T22:14:41.634Z,100215.12
2022-09-12T22:17:14.485Z,100216.89
2022-09-12T22:19:45.482Z,100220.19
2022-09-12T22:22:34.423Z,100216.81
2022-09-12T22:25:12.313Z,100218.07
2022-09-12T22:27:43.366Z,100213.31
2022-09-12T22:30:15.400Z,100211.45
2022-09-12T22:32:48.359Z,100206.34
2022-09-12T22:35:21.013Z,100207.21
2022-09-12T22:37:52.035Z,100208.11
2022-09-12T22:40:23.185Z,100211.20
2022-09-12T22:42:55.716Z,100206.28
2022-09-12T22:45:29.860Z,100203.23
2022-09-12T22:48:01.351Z,100204.30
2022-09-12T22:50:32.939Z,100206.21
2022-09-12T22:53:04.264Z,100206.39
2022-09-12T22:55:55.710Z,100204.21
2022-09-12T22:58:27.138Z,100203.74
2022-09-12T23:00:58.235Z,100198.98
2022-09-12T23:03:29.912Z,100199.89
2022-09-12T23:06:01.127Z,100201.14
2022-09-12T23:08:32.264Z,100201.34
2022-09-12T23:11:09.145Z,100204.28
2022-09-12T23:13:42.406Z,100204.96
2022-09-12T23:16:19.416Z,100204.44
2022-09-12T23:18:51.064Z,100197.27
2022-09-12T23:21:23.415Z,100197.10
2022-09-12T23:23:56.319Z,100193.86
2022-09-12T23:26:28.363Z,100186.84
2022-09-12T23:29:01.145Z,100188.06
2022-09-12T23:31:33.990Z,100186.51
2022-09-12T23:34:09.473Z,100180.55
2022-09-12T23:36:40.413Z,100177.51
2022-09-12T23:39:11.961Z,100176.01
2022-09-12T23:41:43.295Z,100174.19
2022-09-12T23:44:17.345Z,100175.27
2022-09-12T23:46:48.464Z,100169.01
2022-09-12T23:49:20.127Z,100170.24
2022-09-12T23:51:51.087Z,100168.77
2022-09-12T23:54:22.018Z,100171.87
2022-09-12T23:56:53.239Z,100172.94
2022-09-12T23:59:24.216Z,100177.77
